sensor_id;sensor_type;location;lat;lon;timestamp;pressure;altitude;pressure_sealevel;temperature;humidity
44934;BME280;30667;43.614;1.442;2023-04-06T00:00:13;100326.56;;;9.23;100.00
44934;BME280;30667;43.614;1.442;2023-04-06T00:02:39;100327.06;;;9.20;99.87
44934;BME280;30667;43.614;1.442;2023-04-06T00:05:05;100328.66;;;9.16;100.00
44934;BME280;30667;43.614;1.442;2023-04-06T00:07:31;100325.38;;;9.08;100.00
44934;BME280;30667;43.614;1.442;2023-04-06T00:09:58;100315.38;;;9.09;100.00
44934;BME280;30667;43.614;1.442;2023-04-06T00:12:23;100311.38;;;9.12;100.00
44934;BME280;30667;43.614;1.442;2023-04-06T00:14:49;100312.16;;;9.07;100.00
44934;BME280;30667;43.614;1.442;2023-04-06T00:17:15;100316.75;;;9.06;100.00
44934;BME280;30667;43.614;1.442;2023-04-06T00:19:40;100316.13;;;8.99;100.00
44934;BME280;30667;43.614;1.442;2023-04-06T00:22:06;100314.78;;;8.97;100.00
44934;BME280;30667;43.614;1.442;2023-04-06T00:24:31;100312.63;;;8.99;100.00
44934;BME280;30667;43.614;1.442;2023-04-06T00:26:56;100313.16;;;8.96;100.00
44934;BME280;30667;43.614;1.442;2023-04-06T00:29:22;100309.56;;;8.85;100.00
44934;BME280;30667;43.614;1.442;2023-04-06T00:31:47;100306.31;;;8.83;100.00
44934;BME280;30667;43.614;1.442;2023-04-06T00:34:13;100300.16;;;8.87;100.00
44934;BME280;30667;43.614;1.442;2023-04-06T00:36:40;100298.47;;;8.81;100.00
44934;BME280;30667;43.614;1.442;2023-04-06T00:39:05;100296.59;;;8.82;100.00
44934;BME280;30667;43.614;1.442;2023-04-06T00:41:31;100293.31;;;8.75;100.00
44934;BME280;30667;43.614;1.442;2023-04-06T00:43:57;100298.06;;;8.62;100.00
44934;BME280;30667;43.614;1.442;2023-04-06T00:46:22;100294.06;;;8.65;100.00
44934;BME280;30667;43.614;1.442;2023-04-06T00:48:48;100298.31;;;8.61;100.00
44934;BME280;30667;43.614;1.442;2023-04-06T00:51:13;100297.78;;;8.59;100.00
44934;BME280;30667;43.614;1.442;2023-04-06T00:53:38;100297.16;;;8.51;100.00
44934;BME280;30667;43.614;1.442;2023-04-06T00:56:04;100292.31;;;8.53;100.00
44934;BME280;30667;43.614;1.442;2023-04-06T00:58:30;100297.63;;;8.43;100.00
44934;BME280;30667;43.614;1.442;2023-04-06T01:00:55;100296.31;;;8.46;100.00
44934;BME280;30667;43.614;1.442;2023-04-06T01:03:21;100294.09;;;8.43;100.00
44934;BME280;30667;43.614;1.442;2023-04-06T01:05:46;100297.81;;;8.36;100.00
44934;BME280;30667;43.614;1.442;2023-04-06T01:08:12;100298.03;;;8.30;100.00
44934;BME280;30667;43.614;1.442;2023-04-06T01:10:37;100298.53;;;8.27;100.00
44934;BME280;30667;43.614;1.442;2023-04-06T01:13:03;100294.84;;;8.33;100.00
44934;BME280;30667;43.614;1.442;2023-04-06T01:15:29;100298.59;;;8.32;100.00
44934;BME280;30667;43.614;1.442;2023-04-06T01:17:55;100302.00;;;8.22;100.00
44934;BME280;30667;43.614;1.442;2023-04-06T01:20:20;100303.59;;;8.23;100.00
44934;BME280;30667;43.614;1.442;2023-04-06T01:22:46;100301.75;;;8.24;100.00
44934;BME280;30667;43.614;1.442;2023-04-06T01:25:11;100301.75;;;8.24;100.00
44934;BME280;30667;43.614;1.442;2023-04-06T01:27:37;100299.25;;;8.17;100.00
44934;BME280;30667;43.614;1.442;2023-04-06T01:30:03;100294.41;;;8.19;100.00
44934;BME280;30667;43.614;1.442;2023-04-06T01:32:28;100298.75;;;8.20;100.00
44934;BME280;30667;43.614;1.442;2023-04-06T01:34:54;100299.00;;;8.18;100.00
44934;BME280;30667;43.614;1.442;2023-04-06T01:37:20;100293.53;;;8.13;100.00
44934;BME280;30667;43.614;1.442;2023-04-06T01:39:45;100300.31;;;8.16;100.00
44934;BME280;30667;43.614;1.442;2023-04-06T01:42:11;100293.28;;;8.15;100.00
44934;BME280;30667;43.614;1.442;2023-04-06T01:44:36;100285.22;;;8.15;100.00
44934;BME280;30667;43.614;1.442;2023-04-06T01:47:02;100287.97;;;8.20;100.00
44934;BME280;30667;43.614;1.442;2023-04-06T01:49:27;100284.16;;;8.16;100.00
44934;BME280;30667;43.614;1.442;2023-04-06T01:51:53;100282.84;;;8.18;100.00
44934;BME280;30667;43.614;1.442;2023-04-06T01:54:19;100282.75;;;8.13;100.00
44934;BME280;30667;43.614;1.442;2023-04-06T01:56:45;100279.53;;;8.11;100.00
44934;BME280;30667;43.614;1.442;2023-04-06T01:59:10;100276.78;;;8.06;100.00
44934;BME280;30667;43.614;1.442;2023-04-06T02:01:36;100276.47;;;8.03;100.00
44934;BME280;30667;43.614;1.442;2023-04-06T02:04:01;100275.91;;;8.00;100.00
44934;BME280;30667;43.614;1.442;2023-04-06T02:06:27;100268.16;;;8.04;100.00
44934;BME280;30667;43.614;1.442;2023-04-06T02:08:52;100269.97;;;7.98;100.00
44934;BME280;30667;43.614;1.442;2023-04-06T02:11:18;100274.28;;;7.99;100.00
44934;BME280;30667;43.614;1.442;2023-04-06T02:13:43;100266.22;;;7.99;100.00
44934;BME280;30667;43.614;1.442;2023-04-06T02:16:09;100266.72;;;7.96;100.00
44934;BME280;30667;43.614;1.442;2023-04-06T02:18:34;100261.59;;;7.95;100.00
44934;BME280;30667;43.614;1.442;2023-04-06T02:21:00;100260.75;;;7.94;100.00
44934;BME280;30667;43.614;1.442;2023-04-06T02:23:25;100257.50;;;7.92;100.00
44934;BME280;30667;43.614;1.442;2023-04-06T02:25:51;100261.53;;;7.90;100.00
44934;BME280;30667;43.614;1.442;2023-04-06T02:28:17;100259.84;;;7.84;100.00
44934;BME280;30667;43.614;1.442;2023-04-06T02:30:42;100261.16;;;7.81;100.00
44934;BME280;30667;43.614;1.442;2023-04-06T02:33:07;100266.03;;;7.84;100.00
44934;BME280;30667;43.614;1.442;2023-04-06T02:35:33;100256.56;;;7.81;100.00
44934;BME280;30667;43.614;1.442;2023-04-06T02:37:58;100255.78;;;7.81;100.00
44934;BME280;30667;43.614;1.442;2023-04-06T02:40:24;100248.00;;;7.85;100.00
44934;BME280;30667;43.614;1.442;2023-04-06T02:42:49;100252.56;;;7.84;100.00
44934;BME280;30667;43.614;1.442;2023-04-06T02:45:15;100256.03;;;7.79;100.00
44934;BME280;30667;43.614;1.442;2023-04-06T02:47:41;100263.59;;;7.82;100.00
44934;BME280;30667;43.614;1.442;2023-04-06T02:50:07;100267.09;;;7.83;100.00
44934;BME280;30667;43.614;1.442;2023-04-06T02:52:32;100261.72;;;7.83;100.00
44934;BME280;30667;43.614;1.442;2023-04-06T02:54:58;100266.03;;;7.84;100.00
44934;BME280;30667;43.614;1.442;2023-04-06T02:57:23;100262.72;;;7.77;100.00
44934;BME280;30667;43.614;1.442;2023-04-06T02:59:49;100269.25;;;7.81;100.00
44934;BME280;30667;43.614;1.442;2023-04-06T03:02:14;100266.81;;;7.79;100.00
44934;BME280;30667;43.614;1.442;2023-04-06T03:04:40;100267.56;;;7.75;100.00
44934;BME280;30667;43.614;1.442;2023-04-06T03:07:05;100263.31;;;7.79;100.00
44934;BME280;30667;43.614;1.442;2023-04-06T03:09:31;100260.03;;;7.77;100.00
44934;BME280;30667;43.614;1.442;2023-04-06T03:11:56;100258.97;;;7.78;100.00
44934;BME280;30667;43.614;1.442;2023-04-06T03:14:22;100261.97;;;7.81;100.00
44934;BME280;30667;43.614;1.442;2023-04-06T03:16:48;100251.44;;;7.80;100.00
44934;BME280;30667;43.614;1.442;2023-04-06T03:19:14;100257.59;;;7.75;100.00
44934;BME280;30667;43.614;1.442;2023-04-06T03:21:40;100260.84;;;7.77;100.00
44934;BME280;30667;43.614;1.442;2023-04-06T03:24:06;100262.53;;;7.84;100.00
44934;BME280;30667;43.614;1.442;2023-04-06T03:26:32;100260.34;;;7.80;100.00
44934;BME280;30667;43.614;1.442;2023-04-06T03:28:57;100256.53;;;7.76;100.00
44934;BME280;30667;43.614;1.442;2023-04-06T03:31:23;100256.97;;;7.68;100.00
44934;BME280;30667;43.614;1.442;2023-04-06T03:33:48;100257.78;;;7.69;100.00
44934;BME280;30667;43.614;1.442;2023-04-06T03:36:14;100247.25;;;7.67;100.00
44934;BME280;30667;43.614;1.442;2023-04-06T03:38:39;100250.22;;;7.66;100.00
44934;BME280;30667;43.614;1.442;2023-04-06T03:41:05;100242.22;;;7.71;100.00
44934;BME280;30667;43.614;1.442;2023-04-06T03:43:30;100247.59;;;7.71;100.00
44934;BME280;30667;43.614;1.442;2023-04-06T03:45:56;100247.19;;;7.84;100.00
44934;BME280;30667;43.614;1.442;2023-04-06T03:48:21;100247.75;;;7.86;100.00
44934;BME280;30667;43.614;1.442;2023-04-06T03:50:46;100243.31;;;7.75;100.00
44934;BME280;30667;43.614;1.442;2023-04-06T03:53:12;100246.00;;;7.75;100.00
44934;BME280;30667;43.614;1.442;2023-04-06T03:55:37;100249.19;;;7.72;100.00
44934;BME280;30667;43.614;1.442;2023-04-06T03:58:03;100249.50;;;7.75;100.00
44934;BME280;30667;43.614;1.442;2023-04-06T04:00:28;100251.94;;;7.77;100.00
44934;BME280;30667;43.614;1.442;2023-04-06T04:02:54;100250.88;;;7.78;100.00
44934;BME280;30667;43.614;1.442;2023-04-06T04:05:19;100244.44;;;7.79;100.00
44934;BME280;30667;43.614;1.442;2023-04-06T04:07:50;100251.94;;;7.77;100.00
44934;BME280;30667;43.614;1.442;2023-04-06T04:10:15;100254.47;;;7.84;100.00
44934;BME280;30667;43.614;1.442;2023-04-06T04:12:41;100250.44;;;7.86;100.00
44934;BME280;30667;43.614;1.442;2023-04-06T04:15:06;100258.16;;;7.77;100.00
44934;BME280;30667;43.614;1.442;2023-04-06T04:17:32;100258.41;;;7.76;100.00
44934;BME280;30667;43.614;1.442;2023-04-06T04:19:57;100256.03;;;7.79;100.00
44934;BME280;30667;43.614;1.442;2023-04-06T04:22:23;100260.84;;;7.77;100.00
44934;BME280;30667;43.614;1.442;2023-04-06T04:24:48;100263.81;;;7.76;100.00
44934;BME280;30667;43.614;1.442;2023-04-06T04:27:13;100261.66;;;7.78;100.00
44934;BME280;30667;43.614;1.442;2023-04-06T04:29:39;100258.66;;;7.74;100.00
44934;BME280;30667;43.614;1.442;2023-04-06T04:32:04;100260.47;;;7.69;100.00
44934;BME280;30667;43.614;1.442;2023-04-06T04:34:30;100256.19;;;7.68;100.00
44934;BME280;30667;43.614;1.442;2023-04-06T04:36:56;100257.28;;;7.72;100.00
44934;BME280;30667;43.614;1.442;2023-04-06T04:39:21;100256.47;;;7.71;100.00
44934;BME280;30667;43.614;1.442;2023-04-06T04:41:47;100260.59;;;7.79;100.00
44934;BME280;30667;43.614;1.442;2023-04-06T04:44:12;100254.22;;;7.85;100.00
44934;BME280;30667;43.614;1.442;2023-04-06T04:46:38;100260.09;;;7.82;100.00
44934;BME280;30667;43.614;1.442;2023-04-06T04:49:03;100262.53;;;7.84;100.00
44934;BME280;30667;43.614;1.442;2023-04-06T04:51:29;100268.19;;;7.82;100.00
44934;BME280;30667;43.614;1.442;2023-04-06T04:53:55;100262.16;;;7.75;100.00
44934;BME280;30667;43.614;1.442;2023-04-06T04:56:21;100264.59;;;7.76;100.00
44934;BME280;30667;43.614;1.442;2023-04-06T04:58:46;100266.00;;;7.79;100.00
44934;BME280;30667;43.614;1.442;2023-04-06T05:01:11;100259.72;;;7.73;100.00
44934;BME280;30667;43.614;1.442;2023-04-06T05:03:37;100254.38;;;7.78;100.00
44934;BME280;30667;43.614;1.442;2023-04-06T05:06:04;100263.56;;;7.77;100.00
44934;BME280;30667;43.614;1.442;2023-04-06T05:08:30;100265.88;;;7.69;100.00
44934;BME280;30667;43.614;1.442;2023-04-06T05:10:55;100271.84;;;7.71;100.00
44934;BME280;30667;43.614;1.442;2023-04-06T05:13:21;100261.56;;;7.68;100.00
44934;BME280;30667;43.614;1.442;2023-04-06T05:15:47;100269.91;;;7.66;100.00
44934;BME280;30667;43.614;1.442;2023-04-06T05:18:13;100273.38;;;7.67;100.00
44934;BME280;30667;43.614;1.442;2023-04-06T05:20:39;100275.84;;;7.68;100.00
44934;BME280;30667;43.614;1.442;2023-04-06T05:23:04;100283.81;;;7.58;100.00
44934;BME280;30667;43.614;1.442;2023-04-06T05:25:30;100276.22;;;7.55;100.00
44934;BME280;30667;43.614;1.442;2023-04-06T05:27:56;100281.13;;;7.58;100.00
44934;BME280;30667;43.614;1.442;2023-04-06T05:30:21;100287.06;;;7.60;100.00
44934;BME280;30667;43.614;1.442;2023-04-06T05:32:47;100285.34;;;7.54;100.00
44934;BME280;30667;43.614;1.442;2023-04-06T05:35:13;100286.81;;;7.61;100.00
44934;BME280;30667;43.614;1.442;2023-04-06T05:37:39;100290.00;;;7.58;100.00
44934;BME280;30667;43.614;1.442;2023-04-06T05:40:07;100291.31;;;7.56;100.00
44934;BME280;30667;43.614;1.442;2023-04-06T05:42:40;100292.69;;;7.58;100.00
44934;BME280;30667;43.614;1.442;2023-04-06T05:45:10;100301.56;;;7.59;100.00
44934;BME280;30667;43.614;1.442;2023-04-06T05:47:44;100300.28;;;7.61;100.00
44934;BME280;30667;43.614;1.442;2023-04-06T05:50:11;100313.16;;;7.59;100.00
44934;BME280;30667;43.614;1.442;2023-04-06T05:52:36;100317.78;;;7.64;100.00
44934;BME280;30667;43.614;1.442;2023-04-06T05:55:02;100318.47;;;7.76;100.00
44934;BME280;30667;43.614;1.442;2023-04-06T05:57:28;100310.59;;;7.92;100.00
44934;BME280;30667;43.614;1.442;2023-04-06T05:59:54;100315.78;;;7.76;100.00
44934;BME280;30667;43.614;1.442;2023-04-06T06:02:21;100324.66;;;7.77;100.00
44934;BME280;30667;43.614;1.442;2023-04-06T06:04:46;100326.44;;;7.88;100.00
44934;BME280;30667;43.614;1.442;2023-04-06T06:07:12;100331.69;;;8.00;100.00
44934;BME280;30667;43.614;1.442;2023-04-06T06:09:37;100336.00;;;8.01;100.00
44934;BME280;30667;43.614;1.442;2023-04-06T06:12:03;100337.56;;;7.97;100.00
44934;BME280;30667;43.614;1.442;2023-04-06T06:14:28;100339.25;;;8.03;100.00
44934;BME280;30667;43.614;1.442;2023-04-06T06:16:54;100347.03;;;7.99;100.00
44934;BME280;30667;43.614;1.442;2023-04-06T06:19:19;100354.00;;;7.95;100.00
44934;BME280;30667;43.614;1.442;2023-04-06T06:21:45;100351.59;;;7.99;100.00
44934;BME280;30667;43.614;1.442;2023-04-06T06:24:10;100349.34;;;7.91;100.00
44934;BME280;30667;43.614;1.442;2023-04-06T06:26:36;100350.53;;;8.00;100.00
44934;BME280;30667;43.614;1.442;2023-04-06T06:29:03;100356.63;;;7.90;100.00
44934;BME280;30667;43.614;1.442;2023-04-06T06:31:30;100361.38;;;8.05;100.00
44934;BME280;30667;43.614;1.442;2023-04-06T06:33:55;100365.31;;;8.19;100.00
44934;BME280;30667;43.614;1.442;2023-04-06T06:36:21;100368.84;;;8.20;100.00
44934;BME280;30667;43.614;1.442;2023-04-06T06:38:46;100363.13;;;8.16;100.00
44934;BME280;30667;43.614;1.442;2023-04-06T06:41:12;100366.19;;;8.25;100.00
44934;BME280;30667;43.614;1.442;2023-04-06T06:43:37;100371.13;;;8.33;100.00
44934;BME280;30667;43.614;1.442;2023-04-06T06:46:03;100369.47;;;8.32;100.00
44934;BME280;30667;43.614;1.442;2023-04-06T06:48:29;100364.94;;;8.33;100.00
44934;BME280;30667;43.614;1.442;2023-04-06T06:50:55;100367.50;;;8.45;100.00
44934;BME280;30667;43.614;1.442;2023-04-06T06:53:20;100366.44;;;8.46;100.00
44934;BME280;30667;43.614;1.442;2023-04-06T06:55:46;100370.19;;;8.45;100.00
44934;BME280;30667;43.614;1.442;2023-04-06T06:58:14;100365.28;;;8.42;100.00
44934;BME280;30667;43.614;1.442;2023-04-06T07:00:40;100374.28;;;8.47;100.00
44934;BME280;30667;43.614;1.442;2023-04-06T07:03:05;100372.31;;;8.43;100.00
44934;BME280;30667;43.614;1.442;2023-04-06T07:05:30;100374.31;;;8.52;100.00
44934;BME280;30667;43.614;1.442;2023-04-06T07:07:56;100378.56;;;8.48;100.00
44934;BME280;30667;43.614;1.442;2023-04-06T07:10:21;100381.78;;;8.45;100.00
44934;BME280;30667;43.614;1.442;2023-04-06T07:12:47;100379.34;;;8.44;100.00
44934;BME280;30667;43.614;1.442;2023-04-06T07:15:13;100394.44;;;8.45;100.00
44934;BME280;30667;43.614;1.442;2023-04-06T07:17:38;100388.84;;;8.51;100.00
44934;BME280;30667;43.614;1.442;2023-04-06T07:20:06;100382.19;;;8.59;100.00
44934;BME280;30667;43.614;1.442;2023-04-06T07:22:32;100378.97;;;8.62;100.00
44934;BME280;30667;43.614;1.442;2023-04-06T07:24:57;100387.03;;;8.57;100.00
44934;BME280;30667;43.614;1.442;2023-04-06T07:27:23;100397.88;;;8.62;100.00
44934;BME280;30667;43.614;1.442;2023-04-06T07:29:48;100410.88;;;8.70;100.00
44934;BME280;30667;43.614;1.442;2023-04-06T07:32:14;100407.94;;;8.72;100.00
44934;BME280;30667;43.614;1.442;2023-04-06T07:34:39;100414.22;;;8.78;100.00
44934;BME280;30667;43.614;1.442;2023-04-06T07:37:05;100421.00;;;8.85;100.00
44934;BME280;30667;43.614;1.442;2023-04-06T07:39:30;100414.00;;;8.84;100.00
44934;BME280;30667;43.614;1.442;2023-04-06T07:41:56;100421.63;;;8.93;100.00
44934;BME280;30667;43.614;1.442;2023-04-06T07:44:21;100420.31;;;8.95;100.00
44934;BME280;30667;43.614;1.442;2023-04-06T07:46:47;100429.25;;;9.01;100.00
44934;BME280;30667;43.614;1.442;2023-04-06T07:49:12;100435.50;;;9.06;100.00
44934;BME280;30667;43.614;1.442;2023-04-06T07:51:38;100429.09;;;9.13;100.00
44934;BME280;30667;43.614;1.442;2023-04-06T07:54:04;100421.78;;;9.13;100.00
44934;BME280;30667;43.614;1.442;2023-04-06T07:56:30;100430.69;;;9.14;100.00
44934;BME280;30667;43.614;1.442;2023-04-06T07:58:55;100430.78;;;9.24;100.00
44934;BME280;30667;43.614;1.442;2023-04-06T08:01:22;100435.97;;;9.31;100.00
44934;BME280;30667;43.614;1.442;2023-04-06T08:03:48;100415.16;;;9.31;100.00
44934;BME280;30667;43.614;1.442;2023-04-06T08:06:14;100424.41;;;9.40;100.00
44934;BME280;30667;43.614;1.442;2023-04-06T08:08:39;100422.78;;;9.39;100.00
44934;BME280;30667;43.614;1.442;2023-04-06T08:11:05;100416.88;;;9.48;100.00
44934;BME280;30667;43.614;1.442;2023-04-06T08:13:30;100417.19;;;9.51;100.00
44934;BME280;30667;43.614;1.442;2023-04-06T08:15:56;100427.22;;;9.56;100.00
44934;BME280;30667;43.614;1.442;2023-04-06T08:18:22;100431.25;;;9.53;100.00
44934;BME280;30667;43.614;1.442;2023-04-06T08:20:47;100436.97;;;9.62;100.00
44934;BME280;30667;43.614;1.442;2023-04-06T08:23:14;100425.91;;;9.63;100.00
44934;BME280;30667;43.614;1.442;2023-04-06T08:25:40;100435.63;;;9.59;100.00
44934;BME280;30667;43.614;1.442;2023-04-06T08:28:07;100438.63;;;9.68;100.00
44934;BME280;30667;43.614;1.442;2023-04-06T08:30:33;100441.66;;;9.72;100.00
44934;BME280;30667;43.614;1.442;2023-04-06T08:32:59;100438.13;;;9.76;100.00
44934;BME280;30667;43.614;1.442;2023-04-06T08:35:26;100438.44;;;9.80;100.00
44934;BME280;30667;43.614;1.442;2023-04-06T08:37:51;100444.69;;;9.86;100.00
44934;BME280;30667;43.614;1.442;2023-04-06T08:40:17;100447.72;;;9.99;100.00
44934;BME280;30667;43.614;1.442;2023-04-06T08:42:51;100446.91;;;9.99;100.00
44934;BME280;30667;43.614;1.442;2023-04-06T08:45:19;100452.38;;;10.09;100.00
44934;BME280;30667;43.614;1.442;2023-04-06T08:47:52;100450.78;;;10.18;100.00
44934;BME280;30667;43.614;1.442;2023-04-06T08:50:20;100445.09;;;10.15;100.00
44934;BME280;30667;43.614;1.442;2023-04-06T08:52:48;100458.91;;;10.18;100.00
44934;BME280;30667;43.614;1.442;2023-04-06T08:55:15;100463.50;;;10.18;100.00
44934;BME280;30667;43.614;1.442;2023-04-06T08:57:41;100462.97;;;10.21;100.00
44934;BME280;30667;43.614;1.442;2023-04-06T09:00:09;100462.72;;;10.28;100.00
44934;BME280;30667;43.614;1.442;2023-04-06T09:02:38;100460.34;;;10.36;100.00
44934;BME280;30667;43.614;1.442;2023-04-06T09:05:04;100467.66;;;10.36;100.00
44934;BME280;30667;43.614;1.442;2023-04-06T09:07:30;100462.78;;;10.43;100.00
44934;BME280;30667;43.614;1.442;2023-04-06T09:09:56;100469.03;;;10.44;100.00
44934;BME280;30667;43.614;1.442;2023-04-06T09:12:31;100469.63;;;10.61;99.13
44934;BME280;30667;43.614;1.442;2023-04-06T09:14:58;100462.59;;;10.70;95.59
44934;BME280;30667;43.614;1.442;2023-04-06T09:17:26;100463.69;;;10.85;96.97
44934;BME280;30667;43.614;1.442;2023-04-06T09:19:52;100464.00;;;10.88;92.98
44934;BME280;30667;43.614;1.442;2023-04-06T09:22:18;100458.59;;;10.94;88.87
44934;BME280;30667;43.614;1.442;2023-04-06T09:27:10;100468.34;;;10.95;86.26
44934;BME280;30667;43.614;1.442;2023-04-06T09:29:35;100470.50;;;10.93;85.66
44934;BME280;30667;43.614;1.442;2023-04-06T09:32:05;100471.59;;;11.02;87.05
44934;BME280;30667;43.614;1.442;2023-04-06T09:34:32;100465.63;;;11.00;88.76
44934;BME280;30667;43.614;1.442;2023-04-06T09:36:58;100468.34;;;11.15;86.56
44934;BME280;30667;43.614;1.442;2023-04-06T09:39:24;100460.50;;;11.29;86.51
44934;BME280;30667;43.614;1.442;2023-04-06T09:41:53;100464.03;;;11.30;84.74
44934;BME280;30667;43.614;1.442;2023-04-06T09:44:19;100469.19;;;11.36;87.38
44934;BME280;30667;43.614;1.442;2023-04-06T09:46:46;100464.81;;;11.51;87.22
44934;BME280;30667;43.614;1.442;2023-04-06T09:49:13;100468.34;;;11.67;86.63
44934;BME280;30667;43.614;1.442;2023-04-06T09:51:39;100468.84;;;11.74;85.92
44934;BME280;30667;43.614;1.442;2023-04-06T09:54:06;100469.66;;;11.69;84.71
44934;BME280;30667;43.614;1.442;2023-04-06T09:56:38;100468.59;;;11.70;86.43
44934;BME280;30667;43.614;1.442;2023-04-06T09:59:10;100460.69;;;11.79;87.21
44934;BME280;30667;43.614;1.442;2023-04-06T10:01:39;100465.56;;;11.82;85.78
44934;BME280;30667;43.614;1.442;2023-04-06T10:07:07;100462.56;;;12.04;79.64
44934;BME280;30667;43.614;1.442;2023-04-06T10:09:37;100456.03;;;12.10;80.09
44934;BME280;30667;43.614;1.442;2023-04-06T10:12:04;100463.91;;;12.12;77.58
44934;BME280;30667;43.614;1.442;2023-04-06T10:14:32;100458.22;;;12.08;75.96
44934;BME280;30667;43.614;1.442;2023-04-06T10:16:59;100465.00;;;12.06;72.98
44934;BME280;30667;43.614;1.442;2023-04-06T10:19:28;100478.31;;;11.97;71.22
44934;BME280;30667;43.614;1.442;2023-04-06T10:21:59;100472.34;;;11.90;73.12
44934;BME280;30667;43.614;1.442;2023-04-06T10:24:26;100466.91;;;11.90;73.42
44934;BME280;30667;43.614;1.442;2023-04-06T10:27:04;100478.06;;;11.98;72.94
44934;BME280;30667;43.614;1.442;2023-04-06T10:29:47;100476.09;;;12.09;73.36
44934;BME280;30667;43.614;1.442;2023-04-06T10:32:16;100471.72;;;12.18;72.18
44934;BME280;30667;43.614;1.442;2023-04-06T10:34:42;100467.56;;;12.47;71.88
44934;BME280;30667;43.614;1.442;2023-04-06T10:37:16;100466.72;;;12.51;70.26
44934;BME280;30667;43.614;1.442;2023-04-06T10:39:53;100459.13;;;12.48;69.84
44934;BME280;30667;43.614;1.442;2023-04-06T10:42:41;100459.66;;;12.50;69.23
44934;BME280;30667;43.614;1.442;2023-04-06T10:45:18;100453.63;;;12.59;65.92
44934;BME280;30667;43.614;1.442;2023-04-06T10:47:43;100455.03;;;12.56;66.96
44934;BME280;30667;43.614;1.442;2023-04-06T10:50:13;100456.91;;;12.56;64.28
44934;BME280;30667;43.614;1.442;2023-04-06T10:52:40;100447.94;;;12.60;62.64
44934;BME280;30667;43.614;1.442;2023-04-06T10:55:08;100448.63;;;12.76;61.86
44934;BME280;30667;43.614;1.442;2023-04-06T10:57:35;100445.84;;;12.92;61.61
44934;BME280;30667;43.614;1.442;2023-04-06T11:00:02;100441.38;;;13.06;58.92
44934;BME280;30667;43.614;1.442;2023-04-06T11:02:29;100446.19;;;13.14;55.99
44934;BME280;30667;43.614;1.442;2023-04-06T11:04:55;100441.31;;;13.16;56.24
44934;BME280;30667;43.614;1.442;2023-04-06T11:07:23;100439.53;;;13.36;55.35
44934;BME280;30667;43.614;1.442;2023-04-06T11:09:50;100438.13;;;13.38;54.76
44934;BME280;30667;43.614;1.442;2023-04-06T11:12:23;100433.06;;;13.26;53.57
44934;BME280;30667;43.614;1.442;2023-04-06T11:14:57;100437.50;;;13.52;53.84
44934;BME280;30667;43.614;1.442;2023-04-06T11:17:35;100434.94;;;13.31;49.28
44934;BME280;30667;43.614;1.442;2023-04-06T11:20:09;100427.56;;;13.37;50.57
44934;BME280;30667;43.614;1.442;2023-04-06T11:22:34;100436.44;;;13.48;48.54
44934;BME280;30667;43.614;1.442;2023-04-06T11:25:06;100427.97;;;13.49;48.28
44934;BME280;30667;43.614;1.442;2023-04-06T11:27:33;100425.38;;;13.39;48.65
44934;BME280;30667;43.614;1.442;2023-04-06T11:30:00;100425.66;;;13.37;50.32
44934;BME280;30667;43.614;1.442;2023-04-06T11:32:26;100420.22;;;13.32;50.34
44934;BME280;30667;43.614;1.442;2023-04-06T11:34:51;100412.53;;;13.44;50.06
44934;BME280;30667;43.614;1.442;2023-04-06T11:37:17;100407.31;;;13.48;58.82
44934;BME280;30667;43.614;1.442;2023-04-06T11:39:54;100405.56;;;13.33;56.45
44934;BME280;30667;43.614;1.442;2023-04-06T11:42:24;100400.63;;;13.40;52.47
44934;BME280;30667;43.614;1.442;2023-04-06T11:44:57;100395.84;;;13.56;53.08
44934;BME280;30667;43.614;1.442;2023-04-06T11:47:34;100402.50;;;13.69;51.46
44934;BME280;30667;43.614;1.442;2023-04-06T11:50:16;100391.16;;;13.62;49.46
44934;BME280;30667;43.614;1.442;2023-04-06T11:52:42;100398.84;;;13.55;52.59
44934;BME280;30667;43.614;1.442;2023-04-06T11:57:37;100394.56;;;13.73;51.74
44934;BME280;30667;43.614;1.442;2023-04-06T12:00:03;100386.53;;;13.87;47.85
44934;BME280;30667;43.614;1.442;2023-04-06T12:02:29;100385.75;;;14.05;44.91
44934;BME280;30667;43.614;1.442;2023-04-06T12:04:56;100386.00;;;14.09;43.99
44934;BME280;30667;43.614;1.442;2023-04-06T12:07:21;100383.69;;;13.97;44.61
44934;BME280;30667;43.614;1.442;2023-04-06T12:09:46;100390.03;;;14.11;43.98
44934;BME280;30667;43.614;1.442;2023-04-06T12:12:12;100385.56;;;14.21;44.03
44934;BME280;30667;43.614;1.442;2023-04-06T12:14:37;100379.28;;;14.01;45.99
44934;BME280;30667;43.614;1.442;2023-04-06T12:17:03;100367.19;;;13.88;59.16
44934;BME280;30667;43.614;1.442;2023-04-06T12:19:28;100372.97;;;14.06;47.80
44934;BME280;30667;43.614;1.442;2023-04-06T12:21:54;100379.91;;;14.17;47.53
44934;BME280;30667;43.614;1.442;2023-04-06T12:24:19;100371.44;;;14.19;47.56
44934;BME280;30667;43.614;1.442;2023-04-06T12:26:45;100378.84;;;14.13;56.71
44934;BME280;30667;43.614;1.442;2023-04-06T12:29:11;100373.13;;;14.14;47.48
44934;BME280;30667;43.614;1.442;2023-04-06T12:31:38;100382.94;;;14.34;44.47
44934;BME280;30667;43.614;1.442;2023-04-06T12:34:06;100370.31;;;14.39;46.04
44934;BME280;30667;43.614;1.442;2023-04-06T12:36:31;100375.25;;;14.37;43.13
44934;BME280;30667;43.614;1.442;2023-04-06T12:38:57;100369.66;;;14.28;42.86
44934;BME280;30667;43.614;1.442;2023-04-06T12:41:22;100365.38;;;14.41;41.23
44934;BME280;30667;43.614;1.442;2023-04-06T12:43:48;100365.97;;;14.57;42.54
44934;BME280;30667;43.614;1.442;2023-04-06T12:46:15;100366.72;;;14.43;41.37
44934;BME280;30667;43.614;1.442;2023-04-06T12:48:40;100367.69;;;14.52;40.76
44934;BME280;30667;43.614;1.442;2023-04-06T12:51:06;100371.06;;;14.82;40.65
44934;BME280;30667;43.614;1.442;2023-04-06T12:53:34;100364.22;;;14.66;41.82